sensor_id;sensor_type;location;lat;lon;timestamp;pressure;altitude;pressure_sealevel;temperature;humidity
59419;BME280;45224;50.904;6.038;2022-11-25T00:00:25;99262.41;;;9.03;87.58
59419;BME280;45224;50.904;6.038;2022-11-25T00:01:55;99268.41;;;9.00;87.31
59419;BME280;45224;50.904;6.038;2022-11-25T00:03:26;99258.09;;;8.99;87.57
59419;BME280;45224;50.904;6.038;2022-11-25T00:04:56;99261.53;;;9.04;86.83
59419;BME280;45224;50.904;6.038;2022-11-25T00:06:35;99263.25;;;8.97;87.70
59419;BME280;45224;50.904;6.038;2022-11-25T00:08:06;99258.94;;;8.93;88.01
59419;BME280;45224;50.904;6.038;2022-11-25T00:09:36;99257.25;;;9.03;87.73
59419;BME280;45224;50.904;6.038;2022-11-25T00:11:08;99257.22;;;9.07;87.18
59419;BME280;45224;50.904;6.038;2022-11-25T00:12:39;99253.78;;;9.10;86.99
59419;BME280;45224;50.904;6.038;2022-11-25T00:14:12;99252.91;;;9.12;87.06
59419;BME280;45224;50.904;6.038;2022-11-25T00:15:43;99261.53;;;9.02;87.38
59419;BME280;45224;50.904;6.038;2022-11-25T00:17:14;99256.34;;;9.07;87.09
59419;BME280;45224;50.904;6.038;2022-11-25T00:18:46;99253.75;;;9.16;86.58
59419;BME280;45224;50.904;6.038;2022-11-25T00:20:16;99244.31;;;9.09;86.92
59419;BME280;45224;50.904;6.038;2022-11-25T00:21:49;99250.31;;;9.17;86.59
59419;BME280;45224;50.904;6.038;2022-11-25T00:23:20;99248.59;;;9.16;86.52
59419;BME280;45224;50.904;6.038;2022-11-25T00:24:50;99240.84;;;9.21;86.55
59419;BME280;45224;50.904;6.038;2022-11-25T00:26:21;99247.72;;;9.19;86.36
59419;BME280;45224;50.904;6.038;2022-11-25T00:27:52;99236.56;;;9.20;86.38
59419;BME280;45224;50.904;6.038;2022-11-25T00:29:23;99246.03;;;9.19;86.53
59419;BME280;45224;50.904;6.038;2022-11-25T00:30:53;99248.63;;;9.14;86.82
59419;BME280;45224;50.904;6.038;2022-11-25T00:32:24;99243.44;;;9.18;86.73
59419;BME280;45224;50.904;6.038;2022-11-25T00:33:54;99236.56;;;9.15;86.67
59419;BME280;45224;50.904;6.038;2022-11-25T00:35:25;99233.13;;;9.13;86.77
59419;BME280;45224;50.904;6.038;2022-11-25T00:36:56;99231.41;;;9.17;87.01
59419;BME280;45224;50.904;6.038;2022-11-25T00:38:26;99232.25;;;9.16;86.71
59419;BME280;45224;50.904;6.038;2022-11-25T00:39:57;99223.66;;;9.21;86.77
59419;BME280;45224;50.904;6.038;2022-11-25T00:41:28;99228.81;;;9.23;86.48
59419;BME280;45224;50.904;6.038;2022-11-25T00:43:17;99224.50;;;9.23;86.15
59419;BME280;45224;50.904;6.038;2022-11-25T00:45:06;99227.97;;;9.21;86.60
59419;BME280;45224;50.904;6.038;2022-11-25T00:46:37;99229.63;;;9.36;85.89
59419;BME280;45224;50.904;6.038;2022-11-25T00:48:10;99223.63;;;9.34;85.76
59419;BME280;45224;50.904;6.038;2022-11-25T00:49:42;99222.75;;;9.31;85.71
59419;BME280;45224;50.904;6.038;2022-11-25T00:51:13;99221.91;;;9.29;85.95
59419;BME280;45224;50.904;6.038;2022-11-25T00:52:44;99227.94;;;9.25;86.28
59419;BME280;45224;50.904;6.038;2022-11-25T00:54:15;99220.16;;;9.31;85.83
59419;BME280;45224;50.904;6.038;2022-11-25T00:55:46;99217.59;;;9.28;86.29
59419;BME280;45224;50.904;6.038;2022-11-25T00:57:35;99204.75;;;9.18;86.24
59419;BME280;45224;50.904;6.038;2022-11-25T00:59:06;99215.06;;;9.25;86.56
59419;BME280;45224;50.904;6.038;2022-11-25T01:00:37;99222.72;;;9.41;85.62
59419;BME280;45224;50.904;6.038;2022-11-25T01:02:09;99223.63;;;9.27;85.99
59419;BME280;45224;50.904;6.038;2022-11-25T01:03:40;99227.91;;;9.28;86.12
59419;BME280;45224;50.904;6.038;2022-11-25T01:05:10;99228.81;;;9.21;86.56
59419;BME280;45224;50.904;6.038;2022-11-25T01:06:41;99232.25;;;9.22;86.52
59419;BME280;45224;50.904;6.038;2022-11-25T01:08:12;99232.22;;;9.26;86.27
59419;BME280;45224;50.904;6.038;2022-11-25T01:09:43;99226.19;;;9.34;85.85
59419;BME280;45224;50.904;6.038;2022-11-25T01:11:16;99227.06;;;9.29;85.73
59419;BME280;45224;50.904;6.038;2022-11-25T01:12:47;99217.59;;;9.28;86.42
59419;BME280;45224;50.904;6.038;2022-11-25T01:14:20;99226.13;;;9.46;85.78
59419;BME280;45224;50.904;6.038;2022-11-25T01:15:51;99226.13;;;9.43;85.27
59419;BME280;45224;50.904;6.038;2022-11-25T01:17:21;99227.00;;;9.45;85.30
59419;BME280;45224;50.904;6.038;2022-11-25T01:18:52;99223.59;;;9.38;85.53
59419;BME280;45224;50.904;6.038;2022-11-25T01:20:22;99226.13;;;9.43;85.31
59419;BME280;45224;50.904;6.038;2022-11-25T01:21:53;99227.88;;;9.44;85.28
59419;BME280;45224;50.904;6.038;2022-11-25T01:23:23;99221.88;;;9.36;85.46
59419;BME280;45224;50.904;6.038;2022-11-25T01:24:56;99224.47;;;9.32;85.41
59419;BME280;45224;50.904;6.038;2022-11-25T01:26:28;99221.03;;;9.37;85.10
59419;BME280;45224;50.904;6.038;2022-11-25T01:27:59;99216.72;;;9.39;84.91
59419;BME280;45224;50.904;6.038;2022-11-25T01:29:30;99213.28;;;9.38;85.09
59419;BME280;45224;50.904;6.038;2022-11-25T01:31:02;99229.63;;;9.39;84.79
59419;BME280;45224;50.904;6.038;2022-11-25T01:32:32;99222.72;;;9.38;84.86
59419;BME280;45224;50.904;6.038;2022-11-25T01:34:16;99224.44;;;9.39;84.79
59419;BME280;45224;50.904;6.038;2022-11-25T01:35:47;99220.97;;;9.46;84.27
59419;BME280;45224;50.904;6.038;2022-11-25T01:37:17;99227.84;;;9.48;84.25
59419;BME280;45224;50.904;6.038;2022-11-25T01:38:50;99224.41;;;9.48;83.94
59419;BME280;45224;50.904;6.038;2022-11-25T01:40:21;99224.44;;;9.45;84.38
59419;BME280;45224;50.904;6.038;2022-11-25T01:41:52;99230.41;;;9.53;83.85
59419;BME280;45224;50.904;6.038;2022-11-25T01:43:23;99238.16;;;9.53;83.39
59419;BME280;45224;50.904;6.038;2022-11-25T01:45:27;99236.47;;;9.41;83.71
59419;BME280;45224;50.904;6.038;2022-11-25T01:47:22;99225.28;;;9.45;83.98
59419;BME280;45224;50.904;6.038;2022-11-25T01:48:56;99226.13;;;9.49;83.55
59419;BME280;45224;50.904;6.038;2022-11-25T01:50:30;99224.41;;;9.48;83.27
59419;BME280;45224;50.904;6.038;2022-11-25T01:53:38;99237.34;;;9.45;83.67
59419;BME280;45224;50.904;6.038;2022-11-25T01:55:13;99242.50;;;9.46;83.36
59419;BME280;45224;50.904;6.038;2022-11-25T01:56:58;99239.91;;;9.48;83.08
59419;BME280;45224;50.904;6.038;2022-11-25T01:58:35;99243.34;;;9.45;82.83
59419;BME280;45224;50.904;6.038;2022-11-25T02:00:08;99242.50;;;9.43;83.40
59419;BME280;45224;50.904;6.038;2022-11-25T02:01:48;99229.59;;;9.42;83.34
59419;BME280;45224;50.904;6.038;2022-11-25T02:03:20;99246.78;;;9.40;83.08
59419;BME280;45224;50.904;6.038;2022-11-25T02:04:52;99254.50;;;9.52;82.74
59419;BME280;45224;50.904;6.038;2022-11-25T02:06:26;99248.47;;;9.55;82.61
59419;BME280;45224;50.904;6.038;2022-11-25T02:07:58;99250.16;;;9.60;82.55
59419;BME280;45224;50.904;6.038;2022-11-25T02:09:29;99245.91;;;9.50;82.70
59419;BME280;45224;50.904;6.038;2022-11-25T02:11:00;99247.59;;;9.54;82.16
59419;BME280;45224;50.904;6.038;2022-11-25T02:12:36;99251.88;;;9.58;82.41
59419;BME280;45224;50.904;6.038;2022-11-25T02:14:08;99248.47;;;9.53;82.27
59419;BME280;45224;50.904;6.038;2022-11-25T02:15:39;99257.06;;;9.55;82.46
59419;BME280;45224;50.904;6.038;2022-11-25T02:17:09;99262.19;;;9.61;82.42
59419;BME280;45224;50.904;6.038;2022-11-25T02:18:40;99255.31;;;9.59;82.00
59419;BME280;45224;50.904;6.038;2022-11-25T02:21:46;99264.78;;;9.58;82.18
59419;BME280;45224;50.904;6.038;2022-11-25T02:23:29;99260.47;;;9.60;82.21
59419;BME280;45224;50.904;6.038;2022-11-25T02:26:47;99263.88;;;9.64;81.80
59419;BME280;45224;50.904;6.038;2022-11-25T02:28:22;99274.28;;;9.56;81.98
59419;BME280;45224;50.904;6.038;2022-11-25T02:29:53;99277.69;;;9.55;82.38
59419;BME280;45224;50.904;6.038;2022-11-25T02:31:24;99277.72;;;9.54;82.69
59419;BME280;45224;50.904;6.038;2022-11-25T02:32:57;99287.16;;;9.58;82.63
59419;BME280;45224;50.904;6.038;2022-11-25T02:34:28;99277.69;;;9.55;82.16
59419;BME280;45224;50.904;6.038;2022-11-25T02:36:02;99272.56;;;9.46;82.25
59419;BME280;45224;50.904;6.038;2022-11-25T02:37:34;99279.44;;;9.56;82.22
59419;BME280;45224;50.904;6.038;2022-11-25T02:39:04;99278.56;;;9.54;82.25
59419;BME280;45224;50.904;6.038;2022-11-25T02:40:52;99278.56;;;9.53;82.48
59419;BME280;45224;50.904;6.038;2022-11-25T02:42:25;99272.50;;;9.64;81.85
59419;BME280;45224;50.904;6.038;2022-11-25T02:43:57;99279.38;;;9.64;82.37
59419;BME280;45224;50.904;6.038;2022-11-25T02:47:14;99278.56;;;9.54;81.95
59419;BME280;45224;50.904;6.038;2022-11-25T02:48:45;99282.84;;;9.58;82.24
59419;BME280;45224;50.904;6.038;2022-11-25T02:50:16;99275.13;;;9.58;82.05
59419;BME280;45224;50.904;6.038;2022-11-25T02:51:47;99291.47;;;9.51;82.39
59419;BME280;45224;50.904;6.038;2022-11-25T02:53:18;99275.97;;;9.54;81.98
59419;BME280;45224;50.904;6.038;2022-11-25T02:54:48;99279.38;;;9.62;81.99
59419;BME280;45224;50.904;6.038;2022-11-25T02:56:21;99275.97;;;9.54;82.13
59419;BME280;45224;50.904;6.038;2022-11-25T02:57:52;99277.69;;;9.55;82.16
59419;BME280;45224;50.904;6.038;2022-11-25T02:59:22;99282.88;;;9.55;82.84
59419;BME280;45224;50.904;6.038;2022-11-25T03:00:54;99290.59;;;9.60;82.59
59419;BME280;45224;50.904;6.038;2022-11-25T03:02:25;99289.75;;;9.59;82.80
59419;BME280;45224;50.904;6.038;2022-11-25T03:03:56;99284.59;;;9.50;83.31
59419;BME280;45224;50.904;6.038;2022-11-25T03:05:26;99288.03;;;9.49;83.67
59419;BME280;45224;50.904;6.038;2022-11-25T03:06:57;99291.50;;;9.48;83.67
59419;BME280;45224;50.904;6.038;2022-11-25T03:08:28;99296.63;;;9.56;84.33
59419;BME280;45224;50.904;6.038;2022-11-25T03:09:58;99306.09;;;9.50;84.45
59419;BME280;45224;50.904;6.038;2022-11-25T03:11:29;99297.53;;;9.47;84.87
59419;BME280;45224;50.904;6.038;2022-11-25T03:13:19;99302.69;;;9.50;85.28
59419;BME280;45224;50.904;6.038;2022-11-25T03:14:50;99301.84;;;9.42;86.15
59419;BME280;45224;50.904;6.038;2022-11-25T03:16:20;99309.59;;;9.43;87.06
59419;BME280;45224;50.904;6.038;2022-11-25T03:17:51;99307.00;;;9.42;88.70
59419;BME280;45224;50.904;6.038;2022-11-25T03:19:22;99308.75;;;9.29;90.38
59419;BME280;45224;50.904;6.038;2022-11-25T03:20:55;99305.28;;;9.31;89.83
59419;BME280;45224;50.904;6.038;2022-11-25T03:22:28;99314.75;;;9.32;91.04
59419;BME280;45224;50.904;6.038;2022-11-25T03:23:58;99314.75;;;9.31;90.97
59419;BME280;45224;50.904;6.038;2022-11-25T03:25:29;99319.06;;;9.30;91.08
59419;BME280;45224;50.904;6.038;2022-11-25T03:27:00;99325.09;;;9.26;91.70
59419;BME280;45224;50.904;6.038;2022-11-25T03:28:30;99321.66;;;9.29;91.68
59419;BME280;45224;50.904;6.038;2022-11-25T03:30:02;99314.81;;;9.09;91.69
59419;BME280;45224;50.904;6.038;2022-11-25T03:31:33;99331.13;;;9.25;91.89
59419;BME280;45224;50.904;6.038;2022-11-25T03:33:03;99317.38;;;9.16;92.10
59419;BME280;45224;50.904;6.038;2022-11-25T03:34:34;99327.72;;;9.11;92.33
59419;BME280;45224;50.904;6.038;2022-11-25T03:36:05;99322.50;;;9.20;91.93
59419;BME280;45224;50.904;6.038;2022-11-25T03:37:35;99319.94;;;9.19;92.11
59419;BME280;45224;50.904;6.038;2022-11-25T03:39:06;99318.25;;;9.18;91.95
59419;BME280;45224;50.904;6.038;2022-11-25T03:40:39;99329.41;;;9.18;92.16
59419;BME280;45224;50.904;6.038;2022-11-25T03:42:10;99325.97;;;9.19;92.26
59419;BME280;45224;50.904;6.038;2022-11-25T03:43:41;99319.94;;;9.19;92.02
59419;BME280;45224;50.904;6.038;2022-11-25T03:45:13;99319.94;;;9.16;92.86
59419;BME280;45224;50.904;6.038;2022-11-25T03:46:44;99316.50;;;9.15;92.25
59419;BME280;45224;50.904;6.038;2022-11-25T03:48:15;99325.97;;;9.13;92.37
59419;BME280;45224;50.904;6.038;2022-11-25T03:49:46;99317.41;;;9.11;92.56
59419;BME280;45224;50.904;6.038;2022-11-25T03:51:16;99319.09;;;9.09;93.02
59419;BME280;45224;50.904;6.038;2022-11-25T03:52:47;99327.72;;;9.14;92.17
59419;BME280;45224;50.904;6.038;2022-11-25T03:54:18;99313.94;;;9.12;91.71
59419;BME280;45224;50.904;6.038;2022-11-25T03:56:11;99319.97;;;9.11;92.12
59419;BME280;45224;50.904;6.038;2022-11-25T03:57:41;99324.25;;;9.15;92.03
59419;BME280;45224;50.904;6.038;2022-11-25T03:59:12;99313.94;;;9.09;92.20
59419;BME280;45224;50.904;6.038;2022-11-25T04:00:42;99303.63;;;9.12;92.00
59419;BME280;45224;50.904;6.038;2022-11-25T04:02:13;99301.03;;;9.09;92.27
59419;BME280;45224;50.904;6.038;2022-11-25T04:03:43;99306.25;;;9.00;92.98
59419;BME280;45224;50.904;6.038;2022-11-25T04:05:14;99311.38;;;9.04;93.54
59419;BME280;45224;50.904;6.038;2022-11-25T04:06:45;99317.41;;;9.08;93.63
59419;BME280;45224;50.904;6.038;2022-11-25T04:08:16;99315.66;;;9.10;93.45
59419;BME280;45224;50.904;6.038;2022-11-25T04:09:48;99315.66;;;9.02;94.22
59419;BME280;45224;50.904;6.038;2022-11-25T04:11:22;99314.81;;;9.11;93.34
59419;BME280;45224;50.904;6.038;2022-11-25T04:13:13;99319.97;;;9.12;93.38
59419;BME280;45224;50.904;6.038;2022-11-25T04:14:45;99330.25;;;9.16;92.96
59419;BME280;45224;50.904;6.038;2022-11-25T04:16:22;99333.72;;;9.02;94.53
59419;BME280;45224;50.904;6.038;2022-11-25T04:17:55;99327.72;;;9.03;94.82
59419;BME280;45224;50.904;6.038;2022-11-25T04:19:26;99338.03;;;9.08;94.65
59419;BME280;45224;50.904;6.038;2022-11-25T04:20:56;99341.47;;;9.10;94.28
59419;BME280;45224;50.904;6.038;2022-11-25T04:22:27;99334.56;;;9.09;94.10
59419;BME280;45224;50.904;6.038;2022-11-25T04:23:58;99339.72;;;9.15;94.52
59419;BME280;45224;50.904;6.038;2022-11-25T04:25:28;99343.19;;;9.11;93.86
59419;BME280;45224;50.904;6.038;2022-11-25T04:26:59;99341.47;;;9.07;94.54
59419;BME280;45224;50.904;6.038;2022-11-25T04:28:29;99347.50;;;9.03;95.22
59419;BME280;45224;50.904;6.038;2022-11-25T04:30:00;99348.34;;;9.05;94.63
59419;BME280;45224;50.904;6.038;2022-11-25T04:31:31;99353.50;;;9.06;94.57
59419;BME280;45224;50.904;6.038;2022-11-25T04:33:02;99360.34;;;9.09;94.46
59419;BME280;45224;50.904;6.038;2022-11-25T04:34:33;99361.25;;;9.08;95.12
59419;BME280;45224;50.904;6.038;2022-11-25T04:36:04;99350.94;;;9.03;94.58
59419;BME280;45224;50.904;6.038;2022-11-25T04:37:34;99363.81;;;9.11;93.86
59419;BME280;45224;50.904;6.038;2022-11-25T04:39:05;99355.19;;;9.09;94.49
59419;BME280;45224;50.904;6.038;2022-11-25T04:40:37;99365.50;;;9.09;94.35
59419;BME280;45224;50.904;6.038;2022-11-25T04:42:17;99363.81;;;9.08;94.16
59419;BME280;45224;50.904;6.038;2022-11-25T04:44:05;99371.56;;;9.12;94.28
59419;BME280;45224;50.904;6.038;2022-11-25T04:45:36;99369.81;;;9.13;93.67
59419;BME280;45224;50.904;6.038;2022-11-25T04:47:06;99370.69;;;9.18;93.26
59419;BME280;45224;50.904;6.038;2022-11-25T04:48:37;99371.56;;;9.12;94.06
59419;BME280;45224;50.904;6.038;2022-11-25T04:50:13;99378.41;;;9.15;92.95
59419;BME280;45224;50.904;6.038;2022-11-25T04:51:54;99389.59;;;9.20;92.43
59419;BME280;45224;50.904;6.038;2022-11-25T04:53:25;99393.03;;;9.22;92.66
59419;BME280;45224;50.904;6.038;2022-11-25T04:54:56;99387.88;;;9.22;92.45
59419;BME280;45224;50.904;6.038;2022-11-25T04:56:26;99395.63;;;9.22;93.04
59419;BME280;45224;50.904;6.038;2022-11-25T04:57:58;99390.47;;;9.24;92.46
59419;BME280;45224;50.904;6.038;2022-11-25T04:59:30;99396.47;;;9.23;92.57
59419;BME280;45224;50.904;6.038;2022-11-25T05:01:10;99397.31;;;9.25;92.29
59419;BME280;45224;50.904;6.038;2022-11-25T05:02:43;99399.03;;;9.24;92.47
59419;BME280;45224;50.904;6.038;2022-11-25T05:04:21;99400.78;;;9.18;93.32
59419;BME280;45224;50.904;6.038;2022-11-25T05:05:52;99406.78;;;9.21;93.15
59419;BME280;45224;50.904;6.038;2022-11-25T05:07:24;99399.91;;;9.17;92.90
59419;BME280;45224;50.904;6.038;2022-11-25T05:08:57;99405.94;;;9.16;93.30
59419;BME280;45224;50.904;6.038;2022-11-25T05:10:29;99402.50;;;9.08;93.87
59419;BME280;45224;50.904;6.038;2022-11-25T05:12:01;99408.50;;;9.10;93.86
59419;BME280;45224;50.904;6.038;2022-11-25T05:13:31;99412.81;;;9.14;94.01
59419;BME280;45224;50.904;6.038;2022-11-25T05:15:03;99408.50;;;9.13;93.27
59419;BME280;45224;50.904;6.038;2022-11-25T05:16:35;99414.53;;;9.12;94.32
59419;BME280;45224;50.904;6.038;2022-11-25T05:18:06;99423.13;;;9.12;93.74
59419;BME280;45224;50.904;6.038;2022-11-25T05:19:48;99417.94;;;8.94;95.07
59419;BME280;45224;50.904;6.038;2022-11-25T05:21:19;99420.53;;;9.02;94.78
59419;BME280;45224;50.904;6.038;2022-11-25T05:22:50;99415.38;;;8.95;94.81
59419;BME280;45224;50.904;6.038;2022-11-25T05:24:24;99411.06;;;8.96;94.52
59419;BME280;45224;50.904;6.038;2022-11-25T05:26:00;99416.25;;;9.04;94.36
59419;BME280;45224;50.904;6.038;2022-11-25T05:27:43;99409.38;;;9.01;94.38
59419;BME280;45224;50.904;6.038;2022-11-25T05:29:14;99420.53;;;8.99;94.92
59419;BME280;45224;50.904;6.038;2022-11-25T05:30:44;99414.50;;;8.78;95.73
59419;BME280;45224;50.904;6.038;2022-11-25T05:32:15;99417.94;;;8.89;95.57
59419;BME280;45224;50.904;6.038;2022-11-25T05:33:46;99419.69;;;8.90;95.26
59419;BME280;45224;50.904;6.038;2022-11-25T05:35:18;99417.09;;;8.93;95.07
59419;BME280;45224;50.904;6.038;2022-11-25T05:36:50;99423.97;;;8.88;95.23
59419;BME280;45224;50.904;6.038;2022-11-25T05:38:22;99422.25;;;8.84;95.50
59419;BME280;45224;50.904;6.038;2022-11-25T05:39:53;99427.41;;;8.87;95.25
59419;BME280;45224;50.904;6.038;2022-11-25T05:41:40;99434.28;;;8.82;95.92
59419;BME280;45224;50.904;6.038;2022-11-25T05:43:12;99426.53;;;8.81;95.80
59419;BME280;45224;50.904;6.038;2022-11-25T05:44:44;99422.22;;;8.78;95.25
59419;BME280;45224;50.904;6.038;2022-11-25T05:46:15;99432.53;;;8.72;96.43
59419;BME280;45224;50.904;6.038;2022-11-25T05:47:53;99437.69;;;8.75;96.24
59419;BME280;45224;50.904;6.038;2022-11-25T05:49:27;99442.84;;;8.63;96.57
59419;BME280;45224;50.904;6.038;2022-11-25T05:50:59;99431.66;;;8.56;96.84
59419;BME280;45224;50.904;6.038;2022-11-25T05:52:31;99441.13;;;8.63;96.69
59419;BME280;45224;50.904;6.038;2022-11-25T05:54:04;99446.28;;;8.69;96.12
59419;BME280;45224;50.904;6.038;2022-11-25T05:55:37;99447.97;;;8.59;96.72
59419;BME280;45224;50.904;6.038;2022-11-25T05:57:13;99444.56;;;8.67;96.28
59419;BME280;45224;50.904;6.038;2022-11-25T05:58:49;99445.41;;;8.59;96.50
59419;BME280;45224;50.904;6.038;2022-11-25T06:00:20;99447.97;;;8.59;96.42
59419;BME280;45224;50.904;6.038;2022-11-25T06:01:55;99445.41;;;8.56;96.75
59419;BME280;45224;50.904;6.038;2022-11-25T06:03:27;99444.53;;;8.51;96.70
59419;BME280;45224;50.904;6.038;2022-11-25T06:04:58;99446.22;;;8.52;96.82
59419;BME280;45224;50.904;6.038;2022-11-25T06:06:28;99443.63;;;8.41;97.21
59419;BME280;45224;50.904;6.038;2022-11-25T06:07:59;99447.09;;;8.48;96.69
59419;BME280;45224;50.904;6.038;2022-11-25T06:09:30;99454.81;;;8.48;96.76
59419;BME280;45224;50.904;6.038;2022-11-25T06:11:05;99460.84;;;8.52;96.04
59419;BME280;45224;50.904;6.038;2022-11-25T06:12:36;99461.63;;;8.37;96.93
59419;BME280;45224;50.904;6.038;2022-11-25T06:14:07;99443.56;;;8.34;97.05
59419;BME280;45224;50.904;6.038;2022-11-25T06:15:41;99463.34;;;8.41;96.58
59419;BME280;45224;50.904;6.038;2022-11-25T06:17:13;99459.91;;;8.39;96.76
59419;BME280;45224;50.904;6.038;2022-11-25T06:19:01;99463.28;;;8.22;97.63
59419;BME280;45224;50.904;6.038;2022-11-25T06:20:35;99463.31;;;8.29;97.61
59419;BME280;45224;50.904;6.038;2022-11-25T06:22:05;99465.03;;;8.33;97.19
59419;BME280;45224;50.904;6.038;2022-11-25T06:23:36;99463.28;;;8.22;97.58
59419;BME280;45224;50.904;6.038;2022-11-25T06:25:08;99466.72;;;8.28;97.87
59419;BME280;45224;50.904;6.038;2022-11-25T06:26:41;99462.41;;;8.16;97.91
59419;BME280;45224;50.904;6.038;2022-11-25T06:28:11;99466.66;;;8.11;98.38
59419;BME280;45224;50.904;6.038;2022-11-25T06:29:42;99476.13;;;8.19;98.04
59419;BME280;45224;50.904;6.038;2022-11-25T06:31:18;99474.41;;;8.20;97.82
59419;BME280;45224;50.904;6.038;2022-11-25T06:32:58;99466.66;;;8.09;97.98
59419;BME280;45224;50.904;6.038;2022-11-25T06:34:28;99477.81;;;8.10;98.21
59419;BME280;45224;50.904;6.038;2022-11-25T06:36:01;99467.53;;;8.13;98.39
59419;BME280;45224;50.904;6.038;2022-11-25T06:37:32;99480.44;;;8.17;97.86
59419;BME280;45224;50.904;6.038;2022-11-25T06:39:03;99478.66;;;8.10;98.09
59419;BME280;45224;50.904;6.038;2022-11-25T06:40:33;99472.69;;;8.14;97.96
59419;BME280;45224;50.904;6.038;2022-11-25T06:42:04;99476.09;;;8.13;97.74
59419;BME280;45224;50.904;6.038;2022-11-25T06:43:34;99475.28;;;8.16;97.20
59419;BME280;45224;50.904;6.038;2022-11-25T06:45:05;99486.41;;;8.13;97.66
59419;BME280;45224;50.904;6.038;2022-11-25T06:46:36;99488.09;;;8.05;98.21
59419;BME280;45224;50.904;6.038;2022-11-25T06:48:06;99480.41;;;8.11;97.95
59419;BME280;45224;50.904;6.038;2022-11-25T06:49:37;99475.25;;;8.10;97.88
59419;BME280;45224;50.904;6.038;2022-11-25T06:51:10;99478.69;;;8.13;97.33
59419;BME280;45224;50.904;6.038;2022-11-25T06:52:41;99491.50;;;8.04;98.11
59419;BME280;45224;50.904;6.038;2022-11-25T06:54:11;99484.69;;;8.09;97.69
59419;BME280;45224;50.904;6.038;2022-11-25T06:55:42;99490.69;;;8.08;97.64
59419;BME280;45224;50.904;6.038;2022-11-25T06:57:16;99492.41;;;8.09;96.88
59419;BME280;45224;50.904;6.038;2022-11-25T06:58:48;99497.56;;;8.09;97.48
59419;BME280;45224;50.904;6.038;2022-11-25T07:00:19;99498.34;;;7.99;97.98
59419;BME280;45224;50.904;6.038;2022-11-25T07:01:50;99503.53;;;8.03;97.69
59419;BME280;45224;50.904;6.038;2022-11-25T07:03:20;99504.38;;;8.07;97.30
59419;BME280;45224;50.904;6.038;2022-11-25T07:04:51;99500.97;;;8.05;97.16
59419;BME280;45224;50.904;6.038;2022-11-25T07:06:21;99506.94;;;8.04;97.74
59419;BME280;45224;50.904;6.038;2022-11-25T07:07:52;99506.09;;;8.05;97.05
59419;BME280;45224;50.904;6.038;2022-11-25T07:09:22;99516.38;;;8.02;97.09
59419;BME280;45224;50.904;6.038;2022-11-25T07:10:54;99518.13;;;8.04;97.19
59419;BME280;45224;50.904;6.038;2022-11-25T07:12:25;99513.81;;;8.05;96.65
59419;BME280;45224;50.904;6.038;2022-11-25T07:14:00;99522.41;;;7.99;96.64
59419;BME280;45224;50.904;6.038;2022-11-25T07:15:33;99526.66;;;7.99;97.13
59419;BME280;45224;50.904;6.038;2022-11-25T07:17:04;99530.94;;;7.97;97.24
59419;BME280;45224;50.904;6.038;2022-11-25T07:18:35;99537.81;;;7.98;97.68
59419;BME280;45224;50.904;6.038;2022-11-25T07:20:06;99537.84;;;7.99;97.54
59419;BME280;45224;50.904;6.038;2022-11-25T07:21:37;99546.38;;;7.97;97.70
59419;BME280;45224;50.904;6.038;2022-11-25T07:23:08;99547.22;;;7.88;98.21
59419;BME280;45224;50.904;6.038;2022-11-25T07:24:38;99556.63;;;7.89;98.27
59419;BME280;45224;50.904;6.038;2022-11-25T07:26:24;99547.22;;;7.93;97.99
59419;BME280;45224;50.904;6.038;2022-11-25T07:27:54;99543.75;;;7.88;98.07
59419;BME280;45224;50.904;6.038;2022-11-25T07:29:25;99552.41;;;7.99;97.35
59419;BME280;45224;50.904;6.038;2022-11-25T07:32:47;99557.53;;;7.97;97.68
59419;BME280;45224;50.904;6.038;2022-11-25T07:34:19;99552.34;;;7.93;97.29
59419;BME280;45224;50.904;6.038;2022-11-25T07:35:50;99557.53;;;7.97;97.74
59419;BME280;45224;50.904;6.038;2022-11-25T07:37:21;99559.25;;;7.97;97.66
59419;BME280;45224;50.904;6.038;2022-11-25T07:38:51;99557.53;;;7.97;97.50
59419;BME280;45224;50.904;6.038;2022-11-25T07:40:22;99561.84;;;7.97;97.94
59419;BME280;45224;50.904;6.038;2022-11-25T07:41:53;99563.50;;;7.89;98.04
59419;BME280;45224;50.904;6.038;2022-11-25T07:43:23;99563.53;;;7.93;98.17
59419;BME280;45224;50.904;6.038;2022-11-25T07:44:53;99571.31;;;7.98;97.85
59419;BME280;45224;50.904;6.038;2022-11-25T07:46:45;99579.03;;;8.02;97.72
59419;BME280;45224;50.904;6.038;2022-11-25T07:48:17;99579.03;;;8.05;97.43
59419;BME280;45224;50.904;6.038;2022-11-25T07:49:47;99574.72;;;8.00;97.52
59419;BME280;45224;50.904;6.038;2022-11-25T07:51:21;99581.59;;;8.02;97.92
59419;BME280;45224;50.904;6.038;2022-11-25T07:52:52;99580.75;;;8.00;97.83
59419;BME280;45224;50.904;6.038;2022-11-25T07:54:23;99588.47;;;8.02;97.88
59419;BME280;45224;50.904;6.038;2022-11-25T07:55:53;99586.75;;;8.04;98.07
59419;BME280;45224;50.904;6.038;2022-11-25T07:57:24;99585.03;;;8.01;97.99
59419;BME280;45224;50.904;6.038;2022-11-25T07:58:55;99590.28;;;8.11;97.67
59419;BME280;45224;50.904;6.038;2022-11-25T08:00:26;99597.16;;;8.16;97.20
59419;BME280;45224;50.904;6.038;2022-11-25T08:01:56;99601.44;;;8.13;96.81
59419;BME280;45224;50.904;6.038;2022-11-25T08:03:27;99609.19;;;8.19;96.58
59419;BME280;45224;50.904;6.038;2022-11-25T08:04:57;99601.47;;;8.17;96.78
59419;BME280;45224;50.904;6.038;2022-11-25T08:06:28;99610.88;;;8.12;97.22
59419;BME280;45224;50.904;6.038;2022-11-25T08:07:59;99616.94;;;8.20;97.12
59419;BME280;45224;50.904;6.038;2022-11-25T08:09:29;99613.47;;;8.17;97.77
59419;BME280;45224;50.904;6.038;2022-11-25T08:11:00;99624.69;;;8.23;97.59
59419;BME280;45224;50.904;6.038;2022-11-25T08:12:31;99621.28;;;8.31;96.97
59419;BME280;45224;50.904;6.038;2022-11-25T08:14:02;99623.03;;;8.35;96.97
59419;BME280;45224;50.904;6.038;2022-11-25T08:15:33;99630.78;;;8.38;96.67
59419;BME280;45224;50.904;6.038;2022-11-25T08:17:04;99629.06;;;8.38;96.89
59419;BME280;45224;50.904;6.038;2022-11-25T08:18:35;99631.72;;;8.49;96.56
59419;BME280;45224;50.904;6.038;2022-11-25T08:20:06;99633.47;;;8.53;96.34
59419;BME280;45224;50.904;6.038;2022-11-25T08:21:36;99633.44;;;8.46;96.12
59419;BME280;45224;50.904;6.038;2022-11-25T08:23:07;99641.22;;;8.55;95.97
59419;BME280;45224;50.904;6.038;2022-11-25T08:24:37;99636.94;;;8.60;96.00